createdAt,value
2022-08-22T00:07:19.926Z,24.3
2022-08-22T00:12:57.647Z,24.3
2022-08-22T00:19:02.161Z,24.3
2022-08-22T00:24:43.667Z,24.3
2022-08-22T00:30:29.702Z,24.3
2022-08-22T00:36:08.521Z,24.3
2022-08-22T00:41:51.959Z,24.3
2022-08-22T00:47:19.146Z,24.4
2022-08-22T00:52:49.319Z,24.4
2022-08-22T00:58:09.843Z,24.4
2022-08-22T01:04:15.480Z,24.4
2022-08-22T01:10:05.783Z,24.4
2022-08-22T01:15:42.205Z,24.4
2022-08-22T01:21:18.921Z,24.4
2022-08-22T01:26:54.373Z,24.4
2022-08-22T01:32:35.757Z,24.4
2022-08-22T01:38:18.309Z,24.4
2022-08-22T01:44:50.343Z,24.4
2022-08-22T01:50:44.061Z,24.4
2022-08-22T01:56:19.899Z,24.4
2022-08-22T02:01:42.568Z,24.4
2022-08-22T02:07:04.682Z,24.4
2022-08-22T02:12:38.671Z,24.4
2022-08-22T02:18:01.174Z,24.4
2022-08-22T02:23:40.945Z,24.4
2022-08-22T02:29:31.705Z,24.4
2022-08-22T02:35:15.557Z,24.4
2022-08-22T02:40:54.872Z,24.4
2022-08-22T02:46:36.361Z,24.5
2022-08-22T02:52:00.927Z,24.4
2022-08-22T02:57:52.760Z,24.4
2022-08-22T03:03:37.788Z,24.4
2022-08-22T03:09:08.577Z,24.4
2022-08-22T03:14:48.428Z,24.4
2022-08-22T03:20:09.420Z,24.5
2022-08-22T03:25:46.373Z,24.5
2022-08-22T03:32:02.662Z,24.4
2022-08-22T03:37:24.638Z,24.4
2022-08-22T03:43:17.690Z,24.3
2022-08-22T03:48:38.921Z,24.2
2022-08-22T03:54:09.192Z,24.1
2022-08-22T04:00:15.233Z,24.1
2022-08-22T04:06:29.043Z,24.1
2022-08-22T04:12:27.768Z,24.1
2022-08-22T04:18:05.004Z,24.1
2022-08-22T04:23:43.559Z,24.1
2022-08-22T04:29:16.785Z,24.1
2022-08-22T04:34:43.391Z,24.1
2022-08-22T04:40:22.035Z,24.1
2022-08-22T04:46:32.162Z,24.1
2022-08-22T04:52:23.751Z,24.2
2022-08-22T04:58:07.059Z,24.1
2022-08-22T05:04:00.849Z,24.2
2022-08-22T05:09:51.365Z,24.1
2022-08-22T05:15:23.029Z,24.2
2022-08-22T05:21:11.281Z,24.2
2022-08-22T05:27:01.328Z,24.2
2022-08-22T05:32:47.520Z,24.2
2022-08-22T05:38:33.092Z,24.2
2022-08-22T05:44:12.424Z,24.2
2022-08-22T05:49:50.612Z,24.2
2022-08-22T05:55:41.358Z,24.2
2022-08-22T06:01:21.554Z,24.2
2022-08-22T06:06:59.616Z,24.3
2022-08-22T06:12:46.779Z,24.3
2022-08-22T06:18:34.031Z,24.3
2022-08-22T06:24:31.903Z,24.3
2022-08-22T06:30:33.879Z,24.3
2022-08-22T06:36:20.710Z,24.3
2022-08-22T06:42:00.782Z,24.3
2022-08-22T06:47:38.197Z,24.3
2022-08-22T06:53:21.337Z,24.3
2022-08-22T06:59:07.781Z,24.3
2022-08-22T07:05:06.303Z,24.3
2022-08-22T07:10:49.278Z,24.3
2022-08-22T07:16:30.383Z,24.3
2022-08-22T07:22:13.661Z,24.3
2022-08-22T07:27:50.568Z,24.3
2022-08-22T07:34:00.853Z,24.3
2022-08-22T07:39:44.451Z,24.3
2022-08-22T07:45:21.791Z,24.3
2022-08-22T07:51:47.688Z,24.4
2022-08-22T07:57:45.697Z,24.3
2022-08-22T08:03:27.263Z,24.4
2022-08-22T08:09:10.262Z,24.4
2022-08-22T08:14:57.906Z,24.4
2022-08-22T08:20:35.323Z,24.4
2022-08-22T08:26:27.381Z,24.4
2022-08-22T08:32:16.823Z,24.4
2022-08-22T08:38:35.692Z,24.4
2022-08-22T08:44:26.846Z,24.4
2022-08-22T08:50:18.207Z,24.4
2022-08-22T09:41:06.571Z,24.4
2022-08-22T09:46:55.320Z,24.4
2022-08-22T09:53:26.558Z,24.4
2022-08-22T09:59:23.150Z,24.4
2022-08-22T10:05:35.020Z,24.5
2022-08-22T10:11:42.251Z,24.5
2022-08-22T10:17:43.466Z,24.5
2022-08-22T10:23:21.034Z,24.5
2022-08-22T10:29:09.439Z,24.5
2022-08-22T10:35:06.312Z,24.5
2022-08-22T10:41:11.930Z,24.5
2022-08-22T10:47:20.737Z,24.5
2022-08-22T10:53:46.166Z,24.5
2022-08-22T10:59:39.356Z,24.5
2022-08-22T11:06:10.278Z,24.5
2022-08-22T11:12:08.902Z,24.5
2022-08-22T11:18:30.412Z,24.6
2022-08-22T11:24:56.024Z,24.6
2022-08-22T11:31:19.000Z,24.6
2022-08-22T11:38:00.253Z,24.6
2022-08-22T11:43:59.231Z,24.6
2022-08-22T11:50:01.933Z,24.6
2022-08-22T11:56:07.029Z,24.6
2022-08-22T12:01:56.792Z,24.6
2022-08-22T12:08:07.648Z,24.6
2022-08-22T12:14:26.949Z,24.6
2022-08-22T12:21:21.499Z,24.6
2022-08-22T12:27:54.114Z,24.6
2022-08-22T12:33:56.932Z,24.6
2022-08-22T12:40:26.242Z,24.6
2022-08-22T12:46:31.375Z,24.6
2022-08-22T12:52:29.482Z,24.6
2022-08-22T12:58:35.469Z,24.6
2022-08-22T13:04:50.151Z,24.6
2022-08-22T13:10:26.432Z,24.6
2022-08-22T13:16:52.903Z,24.6
2022-08-22T13:23:29.010Z,24.6
2022-08-22T13:30:16.609Z,24.6
2022-08-22T13:36:01.886Z,24.6
2022-08-22T13:41:50.268Z,24.6
2022-08-22T13:47:48.290Z,24.6
2022-08-22T13:54:39.449Z,24.7
2022-08-22T14:01:13.874Z,24.6
2022-08-22T14:07:44.165Z,24.6
2022-08-22T14:14:01.517Z,24.6
2022-08-22T14:20:15.016Z,24.6
2022-08-22T14:26:36.647Z,24.6
2022-08-22T14:32:35.185Z,24.6
2022-08-22T14:38:51.561Z,24.6
2022-08-22T14:45:07.122Z,24.6
2022-08-22T14:52:00.863Z,24.5
2022-08-22T14:57:44.198Z,24.5
2022-08-22T15:03:37.663Z,24.5
2022-08-22T15:09:41.939Z,24.5
2022-08-22T15:15:49.623Z,24.4
2022-08-22T15:22:00.024Z,24.5
2022-08-22T15:27:58.231Z,24.4
2022-08-22T15:34:06.345Z,24.4
2022-08-22T15:40:02.814Z,24.4
2022-08-22T15:46:17.771Z,24.4
2022-08-22T15:52:18.296Z,24.4
2022-08-22T15:58:48.240Z,24.4
2022-08-22T16:05:03.474Z,24.4
2022-08-22T16:10:49.310Z,24.3
2022-08-22T16:16:30.993Z,24.3
2022-08-22T16:22:17.453Z,24.3
2022-08-22T16:27:56.296Z,24.3
2022-08-22T16:34:13.536Z,24.3
2022-08-22T16:39:51.168Z,24.3
2022-08-22T16:45:21.588Z,24.3
2022-08-22T16:51:18.298Z,24.3
2022-08-22T16:56:55.004Z,24.3
2022-08-22T17:03:26.892Z,24.2
2022-08-22T17:09:07.040Z,24.2
2022-08-22T17:14:50.661Z,24.2
2022-08-22T17:20:40.615Z,24.2
2022-08-22T17:26:29.376Z,24.2
2022-08-22T17:32:10.093Z,24.2
2022-08-22T17:37:52.317Z,24.2
2022-08-22T17:43:32.792Z,24.1
2022-08-22T17:49:34.039Z,24.1
2022-08-22T17:55:12.608Z,24.1
2022-08-22T18:01:33.404Z,24.1
2022-08-22T18:07:12.695Z,24.1
2022-08-22T18:13:47.793Z,24.1
2022-08-22T18:19:11.962Z,24.1
2022-08-22T18:25:24.320Z,24.1
2022-08-22T18:31:14.488Z,24.1
2022-08-22T18:36:47.148Z,24.1
2022-08-22T18:42:50.657Z,24.1
2022-08-22T18:49:11.965Z,24
2022-08-22T18:55:04.485Z,24
2022-08-22T19:01:01.424Z,24
2022-08-22T19:06:43.203Z,24
2022-08-22T19:11:53.886Z,24
2022-08-22T19:17:32.484Z,24
2022-08-22T19:23:30.657Z,23.9
2022-08-22T19:29:11.389Z,23.9
2022-08-22T19:35:03.489Z,23.9
2022-08-22T19:40:45.405Z,23.9
2022-08-22T19:46:14.803Z,23.9
2022-08-22T19:51:56.440Z,23.9
2022-08-22T19:57:37.494Z,23.9
2022-08-22T20:03:28.249Z,23.9
2022-08-22T20:09:48.448Z,23.9
2022-08-22T20:15:21.039Z,23.9
2022-08-22T20:21:55.698Z,23.8
2022-08-22T20:28:02.813Z,23.8
2022-08-22T20:33:13.879Z,23.8
2022-08-22T20:40:03.293Z,23.8
2022-08-22T20:46:28.896Z,23.8
2022-08-22T20:51:56.808Z,23.9
2022-08-22T20:57:44.075Z,23.9
2022-08-22T21:03:27.719Z,23.9
2022-08-22T21:09:08.739Z,23.9
2022-08-22T21:14:51.190Z,23.9
2022-08-22T21:20:14.801Z,23.9
2022-08-22T21:25:41.471Z,23.9
2022-08-22T21:31:05.526Z,24
2022-08-22T21:36:44.684Z,24
2022-08-22T21:42:13.443Z,24
2022-08-22T21:48:04.947Z,24
2022-08-22T21:53:45.716Z,24
2022-08-22T22:00:07.606Z,24
2022-08-22T22:06:05.136Z,24.1
2022-08-22T22:11:51.738Z,24.1
2022-08-22T22:17:28.440Z,24.1
2022-08-22T22:23:05.394Z,24.1
2022-08-22T22:29:16.958Z,24.1
2022-08-22T22:34:53.706Z,24.1
2022-08-22T22:40:41.427Z,24.1
2022-08-22T22:46:26.157Z,24.1
2022-08-22T22:51:31.609Z,24.1
2022-08-22T22:57:30.427Z,24.1
2022-08-22T23:03:39.720Z,24.1
2022-08-22T23:09:16.338Z,24.2
2022-08-22T23:15:13.909Z,24.1
2022-08-22T23:20:59.218Z,24.1
2022-08-22T23:26:37.091Z,24.2
2022-08-22T23:32:13.658Z,24.2
2022-08-22T23:37:56.624Z,24.2
2022-08-22T23:43:38.482Z,24.2
2022-08-22T23:49:02.390Z,24.2
2022-08-22T23:54:11.536Z,24.2
